Time;durP1;ratioP1;P1;durP2;ratioP2;P2;SDS_P1;SDS_P2;PMS_P1;PMS_P2;Temp;Humidity;BMP_temperature;BMP_pressure;BME280_temperature;BME280_humidity;BME280_pressure;Samples;Min_cycle;Max_cycle;Signal;HPM_P1;HPM_P2
2023/11/28 00:00:16;;;;;;;9.52;5.25;;;2.30;99.90;;;;;;4981832;28;20026;-60
2023/11/28 00:02:42;;;;;;;13.20;6.32;;;2.30;99.90;;;;;;4984206;28;20088;-61
2023/11/28 00:05:08;;;;;;;13.88;6.28;;;2.30;99.90;;;;;;4978569;28;20034;-60
2023/11/28 00:07:34;;;;;;;12.43;5.95;;;2.40;99.90;;;;;;4982723;28;20137;-60
2023/11/28 00:10:00;;;;;;;12.93;7.28;;;2.30;99.90;;;;;;4977381;28;20121;-60
2023/11/28 00:12:27;;;;;;;14.80;7.22;;;2.30;99.90;;;;;;4989305;28;20042;-60
2023/11/28 00:14:53;;;;;;;16.05;6.78;;;2.30;99.90;;;;;;4980871;28;20074;-60
2023/11/28 00:17:19;;;;;;;16.48;7.70;;;2.30;99.90;;;;;;4992555;28;20061;-60
2023/11/28 00:19:45;;;;;;;17.27;7.45;;;2.30;99.90;;;;;;4981030;28;20058;-60
2023/11/28 00:22:10;;;;;;;21.13;7.32;;;2.30;99.90;;;;;;4992603;28;20033;-60
2023/11/28 00:24:36;;;;;;;12.73;6.60;;;2.20;99.90;;;;;;4980953;28;20042;-60
2023/11/28 00:27:03;;;;;;;18.33;7.45;;;2.10;99.90;;;;;;4991458;28;20074;-59
2023/11/28 00:29:30;;;;;;;14.05;7.05;;;2.20;99.90;;;;;;4983312;28;20065;-60
2023/11/28 00:31:55;;;;;;;15.40;7.35;;;2.20;99.90;;;;;;4989673;28;20109;-60
2023/11/28 00:34:24;;;;;;;17.08;8.25;;;2.20;99.90;;;;;;4988879;28;20027;-60
2023/11/28 00:36:51;;;;;;;18.73;8.50;;;2.20;99.90;;;;;;4987147;28;20486;-61
2023/11/28 00:39:17;;;;;;;17.67;8.77;;;2.30;99.90;;;;;;4986478;28;20030;-60
2023/11/28 00:41:44;;;;;;;17.63;7.90;;;2.30;99.90;;;;;;4988578;28;20529;-60
2023/11/28 00:44:10;;;;;;;17.45;7.93;;;2.30;99.90;;;;;;5000783;28;20049;-60
2023/11/28 00:46:42;;;;;;;15.93;7.88;;;2.30;99.90;;;;;;4981461;28;20815;-60
2023/11/28 00:49:12;;;;;;;21.15;8.85;;;2.30;99.90;;;;;;4984244;28;20046;-60
2023/11/28 00:51:43;;;;;;;16.92;8.38;;;2.30;99.90;;;;;;4997900;28;20034;-60
2023/11/28 00:54:10;;;;;;;19.83;9.32;;;2.40;99.90;;;;;;4986271;28;20555;-60
2023/11/28 00:56:36;;;;;;;18.73;8.88;;;2.40;99.90;;;;;;4981390;28;20129;-60
2023/11/28 00:59:03;;;;;;;17.48;8.75;;;2.20;99.90;;;;;;4985686;28;20046;-60
2023/11/28 01:01:31;;;;;;;21.23;8.77;;;2.10;99.90;;;;;;4983222;28;20716;-60
2023/11/28 01:03:57;;;;;;;19.90;9.77;;;2.10;99.90;;;;;;4984173;28;20576;-60
2023/11/28 01:06:23;;;;;;;16.90;8.80;;;2.20;99.90;;;;;;4983223;28;20044;-60
2023/11/28 01:08:49;;;;;;;19.05;9.55;;;2.10;99.90;;;;;;4983605;28;20039;-60
2023/11/28 01:11:16;;;;;;;20.83;9.60;;;2.00;99.90;;;;;;4989179;28;20034;-60
2023/11/28 01:13:41;;;;;;;15.45;8.77;;;2.00;99.90;;;;;;4986093;28;20038;-60
2023/11/28 01:16:11;;;;;;;20.95;9.48;;;2.10;99.90;;;;;;4998362;28;20045;-60
2023/11/28 01:18:37;;;;;;;20.52;10.20;;;2.20;99.90;;;;;;4987202;28;20038;-60
2023/11/28 01:21:03;;;;;;;20.33;9.32;;;2.20;99.90;;;;;;4981231;28;20102;-60
2023/11/28 01:23:29;;;;;;;17.35;8.50;;;2.20;99.90;;;;;;4989429;28;20104;-61
2023/11/28 01:25:55;;;;;;;21.70;9.23;;;2.20;99.90;;;;;;4978071;28;20538;-60
2023/11/28 01:28:21;;;;;;;19.92;9.45;;;1.90;99.90;;;;;;4989923;28;20014;-60
2023/11/28 01:30:46;;;;;;;19.63;9.02;;;1.90;99.90;;;;;;4977530;28;20031;-60
2023/11/28 01:33:12;;;;;;;18.65;9.43;;;1.90;99.90;;;;;;4976670;28;20112;-60
2023/11/28 01:35:39;;;;;;;17.83;8.55;;;2.00;99.90;;;;;;4980601;28;20557;-60
2023/11/28 01:38:05;;;;;;;17.00;8.32;;;2.10;99.90;;;;;;4989572;28;20089;-63
2023/11/28 01:40:31;;;;;;;19.90;9.25;;;2.20;99.90;;;;;;4979848;28;20117;-64
2023/11/28 01:42:57;;;;;;;16.50;8.23;;;2.30;99.90;;;;;;4988989;28;20619;-64
2023/11/28 01:45:22;;;;;;;22.80;8.57;;;2.20;99.90;;;;;;4983755;28;20120;-64
2023/11/28 01:47:54;;;;;;;14.50;7.63;;;2.20;99.90;;;;;;4990122;28;20044;-64
2023/11/28 01:50:20;;;;;;;16.52;7.55;;;2.30;99.90;;;;;;4983139;28;20030;-64
2023/11/28 01:52:47;;;;;;;17.67;7.70;;;2.30;99.90;;;;;;4989137;28;20027;-64
2023/11/28 01:55:14;;;;;;;16.13;8.02;;;2.30;99.90;;;;;;4985191;28;20057;-64
2023/11/28 01:57:40;;;;;;;18.05;8.18;;;2.30;99.90;;;;;;4986549;28;20133;-64
2023/11/28 02:00:08;;;;;;;17.73;8.57;;;2.30;99.90;;;;;;4998987;28;20038;-64
2023/11/28 02:02:40;;;;;;;16.25;8.15;;;2.40;99.90;;;;;;4988406;28;20057;-64
2023/11/28 02:05:06;;;;;;;19.17;8.50;;;2.40;99.90;;;;;;4982887;28;20086;-64
2023/11/28 02:07:33;;;;;;;18.48;8.40;;;2.30;99.90;;;;;;4981876;28;20050;-64
2023/11/28 02:09:59;;;;;;;14.63;7.10;;;2.30;99.90;;;;;;4982815;28;20088;-64
2023/11/28 02:12:26;;;;;;;15.02;7.88;;;2.40;99.90;;;;;;4982448;28;20072;-64
2023/11/28 02:14:52;;;;;;;20.02;9.05;;;2.30;99.90;;;;;;4984337;28;20027;-64
2023/11/28 02:17:18;;;;;;;16.45;7.68;;;2.20;99.90;;;;;;4988041;28;20057;-64
2023/11/28 02:19:47;;;;;;;15.32;7.55;;;2.20;99.90;;;;;;4990323;28;20030;-64
2023/11/28 02:22:13;;;;;;;15.50;8.32;;;2.20;99.90;;;;;;4982297;28;20095;-64
2023/11/28 02:24:41;;;;;;;17.58;8.90;;;2.10;99.90;;;;;;4985271;28;20034;-64
2023/11/28 02:27:07;;;;;;;16.63;8.07;;;2.20;99.90;;;;;;4983273;28;20034;-64
2023/11/28 02:29:33;;;;;;;16.75;8.18;;;2.20;99.90;;;;;;4986975;28;20116;-64
2023/11/28 02:31:59;;;;;;;19.80;8.82;;;2.30;99.90;;;;;;4993772;28;20138;-64
2023/11/28 02:34:24;;;;;;;15.18;8.18;;;2.30;99.90;;;;;;4987980;28;20031;-64
2023/11/28 02:36:50;;;;;;;18.77;7.88;;;2.30;99.90;;;;;;4984232;28;20042;-64
2023/11/28 02:39:16;;;;;;;15.52;8.15;;;2.30;99.90;;;;;;4991601;28;20026;-64
2023/11/28 02:41:42;;;;;;;16.17;7.65;;;2.30;99.90;;;;;;4996153;28;20252;-64
2023/11/28 02:44:08;;;;;;;18.38;9.25;;;2.40;99.90;;;;;;4989641;28;20495;-64
2023/11/28 02:46:34;;;;;;;16.73;7.70;;;2.40;99.90;;;;;;4977476;28;20038;-64
2023/11/28 02:49:00;;;;;;;15.15;7.43;;;2.40;99.90;;;;;;4988488;28;20085;-64
2023/11/28 02:51:25;;;;;;;15.45;7.88;;;2.40;99.90;;;;;;4989991;28;20038;-64
2023/11/28 02:53:51;;;;;;;16.65;7.53;;;2.50;99.90;;;;;;4983976;28;20032;-64
2023/11/28 02:56:18;;;;;;;17.88;7.80;;;2.50;99.90;;;;;;4987090;28;20058;-65
2023/11/28 02:58:44;;;;;;;16.92;7.38;;;2.50;99.90;;;;;;4984536;28;20132;-64
2023/11/28 03:01:10;;;;;;;12.85;6.93;;;2.40;99.90;;;;;;4997851;28;20505;-64
2023/11/28 03:03:36;;;;;;;14.63;6.68;;;2.30;99.90;;;;;;4986893;28;20453;-64
2023/11/28 03:06:03;;;;;;;14.07;6.25;;;2.20;99.90;;;;;;4982080;28;20054;-64
2023/11/28 03:08:29;;;;;;;12.88;6.15;;;2.20;99.90;;;;;;4985290;28;20061;-64
2023/11/28 03:10:54;;;;;;;16.88;6.80;;;2.20;99.90;;;;;;4994426;28;20439;-64
2023/11/28 03:13:20;;;;;;;12.55;5.78;;;2.30;99.90;;;;;;4985700;28;20401;-64
2023/11/28 03:15:47;;;;;;;12.35;6.38;;;2.30;99.90;;;;;;4997410;28;20042;-64
2023/11/28 03:18:13;;;;;;;11.98;5.95;;;2.20;99.90;;;;;;4987601;28;20111;-64
2023/11/28 03:20:38;;;;;;;11.02;5.20;;;2.10;99.90;;;;;;4983450;28;20506;-64
2023/11/28 03:23:04;;;;;;;11.00;5.25;;;2.20;99.90;;;;;;4978868;28;20039;-64
2023/11/28 03:25:32;;;;;;;13.05;5.70;;;2.10;99.90;;;;;;4987175;28;20035;-64
2023/11/28 03:27:58;;;;;;;14.35;5.60;;;2.20;99.90;;;;;;4982225;28;20030;-64
2023/11/28 03:30:26;;;;;;;14.98;6.55;;;2.20;99.90;;;;;;4986806;28;20034;-64
2023/11/28 03:32:52;;;;;;;13.32;5.88;;;2.20;99.90;;;;;;4993788;28;20038;-64
2023/11/28 03:35:18;;;;;;;17.83;6.50;;;2.10;99.90;;;;;;4989451;28;20038;-64
2023/11/28 03:37:46;;;;;;;12.27;5.70;;;2.10;99.90;;;;;;4976049;28;20031;-64
2023/11/28 03:40:13;;;;;;;13.38;5.93;;;2.10;99.90;;;;;;4990333;28;20031;-64
2023/11/28 03:42:39;;;;;;;12.00;5.70;;;2.10;99.90;;;;;;4981779;28;20093;-64
2023/11/28 03:45:05;;;;;;;12.98;6.15;;;2.10;99.90;;;;;;4987978;28;20491;-64
2023/11/28 03:47:31;;;;;;;12.38;6.22;;;2.10;99.90;;;;;;4981737;28;20513;-64
2023/11/28 03:49:57;;;;;;;14.07;6.07;;;2.20;99.90;;;;;;4989059;28;20046;-64
2023/11/28 03:52:23;;;;;;;15.68;6.45;;;2.20;99.90;;;;;;4988265;28;20038;-64
2023/11/28 03:54:49;;;;;;;12.90;5.60;;;2.20;99.90;;;;;;5003283;28;20441;-64
2023/11/28 03:57:15;;;;;;;11.65;5.75;;;2.20;99.90;;;;;;4990077;28;20109;-64
2023/11/28 03:59:41;;;;;;;12.43;5.45;;;2.20;99.90;;;;;;4988929;28;20180;-64
2023/11/28 04:02:08;;;;;;;12.25;5.55;;;2.20;99.90;;;;;;4983507;28;20055;-64
2023/11/28 04:04:34;;;;;;;12.30;4.80;;;2.20;99.90;;;;;;5004593;28;20030;-64
2023/11/28 04:07:00;;;;;;;10.73;5.60;;;2.20;99.90;;;;;;4998901;28;20512;-64
2023/11/28 04:09:26;;;;;;;10.70;5.03;;;2.20;99.90;;;;;;4988326;28;20488;-64
2023/11/28 04:11:52;;;;;;;8.63;4.65;;;2.20;99.90;;;;;;4991281;28;20108;-64
2023/11/28 04:14:18;;;;;;;8.65;4.72;;;2.10;99.90;;;;;;4989209;28;20085;-64
2023/11/28 04:16:44;;;;;;;9.10;4.05;;;2.00;99.90;;;;;;5001249;28;20030;-64
2023/11/28 04:19:10;;;;;;;7.75;4.10;;;1.90;99.90;;;;;;4988753;28;20030;-64
2023/11/28 04:21:36;;;;;;;6.50;4.10;;;2.00;99.90;;;;;;5000949;28;20577;-64
2023/11/28 04:24:02;;;;;;;9.07;4.10;;;2.00;99.90;;;;;;4985519;28;20044;-64
2023/11/28 04:26:29;;;;;;;9.60;4.40;;;2.00;99.90;;;;;;4990505;28;20116;-65
2023/11/28 04:28:55;;;;;;;8.60;3.83;;;1.90;99.90;;;;;;4983887;28;20045;-65
2023/11/28 04:31:22;;;;;;;9.95;4.25;;;1.90;99.90;;;;;;4991892;28;20026;-64
2023/11/28 04:33:52;;;;;;;9.23;4.03;;;2.00;99.90;;;;;;4986547;28;20076;-64
2023/11/28 04:36:18;;;;;;;10.02;4.28;;;2.00;99.90;;;;;;4989970;28;20034;-64
2023/11/28 04:38:44;;;;;;;11.23;4.40;;;2.10;99.90;;;;;;4983919;28;20445;-65
2023/11/28 04:41:13;;;;;;;11.25;4.55;;;2.00;99.90;;;;;;4995599;28;20017;-65
2023/11/28 04:43:40;;;;;;;8.77;4.30;;;2.00;99.90;;;;;;4993750;28;20054;-65
2023/11/28 04:46:07;;;;;;;7.93;4.65;;;2.00;99.90;;;;;;5005313;28;20042;-65
2023/11/28 04:48:32;;;;;;;11.02;5.10;;;2.00;99.90;;;;;;4978613;28;20027;-65
2023/11/28 04:50:58;;;;;;;8.52;4.20;;;2.00;99.90;;;;;;4988880;28;20027;-64
2023/11/28 04:53:25;;;;;;;7.65;4.25;;;2.00;99.90;;;;;;4985850;28;20038;-65
2023/11/28 04:55:51;;;;;;;11.60;4.78;;;2.00;99.90;;;;;;4987316;28;20139;-64
2023/11/28 04:58:18;;;;;;;10.45;5.10;;;2.10;99.90;;;;;;4981210;28;20030;-65
2023/11/28 05:00:44;;;;;;;8.68;4.00;;;2.10;99.90;;;;;;4986458;28;20026;-64
2023/11/28 05:03:11;;;;;;;10.10;4.75;;;2.20;99.90;;;;;;5005480;28;20120;-65
2023/11/28 05:05:37;;;;;;;9.00;4.55;;;2.20;99.90;;;;;;4986304;28;20409;-65
2023/11/28 05:08:03;;;;;;;10.15;4.65;;;2.30;99.90;;;;;;4982637;28;20085;-65
2023/11/28 05:10:29;;;;;;;11.95;5.15;;;2.20;99.90;;;;;;4988140;28;20033;-64
2023/11/28 05:12:55;;;;;;;7.45;4.28;;;2.20;99.90;;;;;;4980614;28;20073;-64
2023/11/28 05:15:21;;;;;;;8.27;4.43;;;2.20;99.90;;;;;;5003416;28;20794;-65
2023/11/28 05:17:48;;;;;;;9.52;4.07;;;2.20;99.90;;;;;;4981049;28;20062;-65
2023/11/28 05:20:14;;;;;;;11.00;4.07;;;2.10;99.90;;;;;;4994744;28;20048;-65
2023/11/28 05:22:41;;;;;;;7.70;3.80;;;2.10;99.90;;;;;;4986166;28;20045;-65
2023/11/28 05:25:08;;;;;;;9.18;4.22;;;2.10;99.90;;;;;;5002701;28;20039;-65
2023/11/28 05:27:34;;;;;;;11.15;3.97;;;2.10;99.90;;;;;;4997396;28;20387;-65
2023/11/28 05:30:02;;;;;;;9.98;4.05;;;2.10;99.90;;;;;;4984898;28;20126;-65
2023/11/28 05:32:29;;;;;;;8.02;4.03;;;2.10;99.90;;;;;;4988635;28;20097;-65
2023/11/28 05:34:55;;;;;;;9.63;4.32;;;2.10;99.90;;;;;;4984212;28;20080;-65
2023/11/28 05:37:23;;;;;;;8.13;3.63;;;2.10;99.90;;;;;;4990320;28;20109;-65
2023/11/28 05:39:50;;;;;;;8.95;3.75;;;2.10;99.90;;;;;;4998004;28;20034;-65
2023/11/28 05:42:16;;;;;;;7.50;3.67;;;2.00;99.90;;;;;;4990835;28;20128;-65
2023/11/28 05:44:42;;;;;;;9.57;3.42;;;2.00;99.90;;;;;;4982446;28;20168;-65
2023/11/28 05:47:08;;;;;;;6.47;3.45;;;2.00;99.90;;;;;;5006578;28;20145;-65
2023/11/28 05:49:34;;;;;;;7.57;3.22;;;2.00;99.90;;;;;;5001147;28;20445;-65
2023/11/28 05:52:01;;;;;;;9.80;3.90;;;2.00;99.90;;;;;;5000254;28;20045;-65
2023/11/28 05:54:28;;;;;;;7.05;3.13;;;2.00;99.90;;;;;;4989015;28;20033;-61
2023/11/28 05:56:54;;;;;;;9.95;3.58;;;2.00;99.90;;;;;;5002472;28;20023;-61
2023/11/28 05:59:21;;;;;;;5.72;2.80;;;2.00;99.90;;;;;;4989651;28;20057;-60
2023/11/28 06:02:03;;;;;;;9.07;3.88;;;2.00;99.90;;;;;;4988035;28;20062;-60
2023/11/28 06:04:30;;;;;;;8.77;3.42;;;2.00;99.90;;;;;;4980731;28;20100;-60
2023/11/28 06:06:57;;;;;;;4.88;2.58;;;2.00;99.90;;;;;;4986926;28;20035;-61
2023/11/28 06:09:24;;;;;;;10.43;3.15;;;2.00;99.90;;;;;;4984348;28;20787;-61
2023/11/28 06:11:51;;;;;;;6.75;3.72;;;2.00;99.90;;;;;;5000415;28;20038;-61
2023/11/28 06:14:18;;;;;;;7.65;3.65;;;2.10;99.90;;;;;;4986449;28;20027;-61
2023/11/28 06:16:44;;;;;;;6.97;3.22;;;2.10;99.90;;;;;;4982839;28;20084;-61
2023/11/28 06:19:10;;;;;;;7.60;3.33;;;2.10;99.90;;;;;;4980903;28;20036;-60
2023/11/28 06:21:36;;;;;;;7.10;3.67;;;2.20;99.90;;;;;;4984727;28;20044;-61
2023/11/28 06:24:02;;;;;;;7.70;3.25;;;2.20;99.90;;;;;;4995809;28;20094;-61
2023/11/28 06:26:28;;;;;;;5.20;2.83;;;2.10;99.90;;;;;;4981938;28;20489;-61
2023/11/28 06:28:54;;;;;;;8.35;3.50;;;2.10;99.90;;;;;;4980724;28;20043;-61
2023/11/28 06:31:20;;;;;;;8.63;2.95;;;2.10;99.90;;;;;;4986431;28;20037;-61
2023/11/28 06:33:46;;;;;;;5.43;2.88;;;2.10;99.90;;;;;;4978804;28;20058;-61
2023/11/28 06:36:13;;;;;;;6.90;3.15;;;2.10;99.90;;;;;;4984593;28;20041;-61
2023/11/28 06:38:39;;;;;;;7.95;4.07;;;2.10;99.90;;;;;;4982481;28;20037;-61
2023/11/28 06:41:05;;;;;;;7.40;3.33;;;2.10;99.90;;;;;;4985325;28;20034;-61
2023/11/28 06:43:31;;;;;;;5.55;2.95;;;2.10;99.90;;;;;;4983552;28;20050;-61
2023/11/28 06:46:00;;;;;;;5.78;3.25;;;2.20;99.90;;;;;;4983273;28;20108;-61
2023/11/28 06:48:27;;;;;;;7.05;2.85;;;2.20;99.90;;;;;;4985384;28;20034;-61
2023/11/28 06:50:53;;;;;;;7.50;3.55;;;2.20;99.90;;;;;;4982467;28;20041;-61
2023/11/28 06:53:19;;;;;;;8.48;3.63;;;2.20;99.90;;;;;;4986476;28;20034;-61
2023/11/28 06:55:45;;;;;;;8.48;3.35;;;2.20;99.90;;;;;;4982139;28;20026;-63
2023/11/28 06:58:11;;;;;;;5.57;2.78;;;2.20;99.90;;;;;;4986737;28;20065;-61
2023/11/28 07:00:37;;;;;;;6.45;3.40;;;2.20;99.90;;;;;;4982679;28;20038;-61
2023/11/28 07:03:03;;;;;;;5.45;2.92;;;2.20;99.90;;;;;;4986635;28;20034;-61
2023/11/28 07:05:29;;;;;;;6.95;3.50;;;2.20;99.90;;;;;;4982926;28;20030;-61
2023/11/28 07:07:55;;;;;;;6.10;3.45;;;2.20;99.90;;;;;;4986081;28;20050;-61
2023/11/28 07:10:21;;;;;;;7.78;3.10;;;2.20;99.90;;;;;;4983336;28;20034;-61
2023/11/28 07:12:47;;;;;;;8.70;3.42;;;2.20;99.90;;;;;;4985873;28;20474;-61
2023/11/28 07:15:13;;;;;;;7.32;3.67;;;2.30;99.90;;;;;;4983676;28;20038;-61
2023/11/28 07:17:40;;;;;;;8.00;3.15;;;2.20;99.90;;;;;;4987147;28;20034;-61
2023/11/28 07:20:07;;;;;;;7.07;3.25;;;2.20;99.90;;;;;;4979432;28;20055;-61
2023/11/28 07:22:33;;;;;;;6.78;3.22;;;2.20;99.90;;;;;;4984936;28;20050;-61
2023/11/28 07:24:59;;;;;;;9.63;4.40;;;2.20;99.90;;;;;;4981266;28;20041;-61
2023/11/28 07:27:24;;;;;;;8.40;3.72;;;2.20;99.90;;;;;;4988656;28;20149;-61
2023/11/28 07:29:50;;;;;;;9.70;4.38;;;2.30;99.90;;;;;;4978693;28;20034;-61
2023/11/28 07:32:16;;;;;;;9.10;4.15;;;2.30;99.90;;;;;;4985037;28;20117;-61
2023/11/28 07:34:42;;;;;;;9.88;4.05;;;2.30;99.90;;;;;;4979908;28;20042;-61
2023/11/28 07:37:08;;;;;;;10.95;3.85;;;2.30;99.90;;;;;;4984693;28;20038;-61
2023/11/28 07:39:34;;;;;;;9.82;4.10;;;2.40;99.90;;;;;;4981493;28;20034;-61
2023/11/28 07:42:00;;;;;;;8.93;3.58;;;2.40;99.90;;;;;;4982778;28;20035;-62
2023/11/28 07:44:26;;;;;;;11.65;3.75;;;2.50;99.90;;;;;;4982897;28;20074;-61
2023/11/28 07:46:52;;;;;;;8.40;3.75;;;2.50;99.90;;;;;;4980328;28;20806;-61
2023/11/28 07:49:18;;;;;;;9.07;3.90;;;2.50;99.90;;;;;;4983910;28;20034;-61
2023/11/28 07:51:44;;;;;;;11.32;5.13;;;2.50;99.90;;;;;;4979368;28;20046;-61
2023/11/28 07:54:11;;;;;;;10.73;4.13;;;2.60;99.90;;;;;;4987333;28;20109;-61
2023/11/28 07:56:37;;;;;;;10.27;3.97;;;2.70;99.90;;;;;;4981071;28;20065;-61
2023/11/28 07:59:03;;;;;;;9.05;3.50;;;2.70;99.90;;;;;;4984357;28;20247;-61
2023/11/28 08:01:28;;;;;;;6.43;3.83;;;2.70;99.90;;;;;;4981362;28;20026;-61
2023/11/28 08:03:54;;;;;;;8.50;3.88;;;2.80;99.90;;;;;;4983986;28;20322;-61
2023/11/28 08:06:20;;;;;;;6.28;3.35;;;2.80;99.90;;;;;;4979664;28;20073;-61
2023/11/28 08:08:46;;;;;;;9.73;4.22;;;2.90;99.90;;;;;;4981150;28;20041;-61
2023/11/28 08:11:12;;;;;;;8.52;4.18;;;2.90;99.90;;;;;;4978633;28;20026;-61
2023/11/28 08:13:39;;;;;;;7.60;3.80;;;2.90;99.90;;;;;;4981830;28;20042;-61
2023/11/28 08:16:06;;;;;;;9.23;3.78;;;3.00;99.90;;;;;;4978419;28;20034;-61
2023/11/28 08:18:31;;;;;;;10.52;4.22;;;3.00;99.90;;;;;;4986985;28;20125;-61
2023/11/28 08:20:58;;;;;;;8.07;3.97;;;3.00;99.90;;;;;;4977558;28;20121;-61
2023/11/28 08:23:24;;;;;;;8.85;4.40;;;3.10;99.90;;;;;;4988453;28;20141;-61
2023/11/28 08:25:50;;;;;;;11.32;4.97;;;3.10;99.90;;;;;;4977047;28;20117;-61
2023/11/28 08:28:15;;;;;;;12.10;5.95;;;3.20;99.90;;;;;;4990402;28;20034;-61
2023/11/28 08:30:41;;;;;;;11.82;5.28;;;3.20;99.90;;;;;;4978692;28;20125;-61
2023/11/28 08:33:07;;;;;;;12.48;4.80;;;3.20;99.90;;;;;;4991957;28;20037;-61
2023/11/28 08:35:33;;;;;;;13.00;5.38;;;3.20;99.90;;;;;;4981811;28;20490;-61
2023/11/28 08:37:59;;;;;;;12.75;5.38;;;3.20;99.90;;;;;;4991727;28;20465;-61
2023/11/28 08:40:25;;;;;;;12.23;5.38;;;3.20;99.90;;;;;;4983913;28;20033;-61
2023/11/28 08:42:51;;;;;;;12.75;5.55;;;3.20;99.90;;;;;;4982497;28;20058;-60
2023/11/28 08:45:16;;;;;;;14.70;5.75;;;3.30;99.90;;;;;;4987140;28;20030;-61
2023/11/28 08:47:43;;;;;;;13.63;6.75;;;3.30;99.90;;;;;;4983094;28;20130;-61
2023/11/28 08:50:09;;;;;;;14.43;6.28;;;3.30;99.90;;;;;;4986402;28;20073;-61
2023/11/28 08:52:35;;;;;;;12.13;5.47;;;3.20;99.90;;;;;;4983581;28;20062;-61
2023/11/28 08:55:01;;;;;;;11.73;5.80;;;3.20;99.90;;;;;;4985802;28;20039;-61
2023/11/28 08:57:33;;;;;;;12.07;5.85;;;3.20;99.90;;;;;;4982844;28;20037;-61
2023/11/28 09:00:03;;;;;;;13.80;6.68;;;3.20;99.90;;;;;;4985534;28;20074;-61
2023/11/28 09:02:29;;;;;;;13.52;6.35;;;3.20;99.90;;;;;;4982830;28;20030;-61
2023/11/28 09:04:55;;;;;;;13.50;6.32;;;3.20;99.90;;;;;;4985538;28;20764;-61
2023/11/28 09:07:21;;;;;;;16.13;6.47;;;3.10;99.90;;;;;;4983402;28;20029;-61
2023/11/28 09:09:47;;;;;;;14.13;6.53;;;3.10;99.90;;;;;;4986273;28;20081;-61
2023/11/28 09:12:15;;;;;;;11.57;6.38;;;3.10;99.90;;;;;;4984183;28;20796;-61
2023/11/28 09:14:41;;;;;;;14.80;6.05;;;3.10;99.90;;;;;;4985160;28;20524;-61
2023/11/28 09:17:07;;;;;;;12.10;6.05;;;3.20;99.90;;;;;;4983339;28;20054;-61
2023/11/28 09:19:33;;;;;;;16.40;6.50;;;3.20;99.90;;;;;;4988999;28;20740;-61
2023/11/28 09:22:01;;;;;;;13.35;6.55;;;3.20;99.90;;;;;;4980125;28;20069;-61
2023/11/28 09:24:27;;;;;;;16.02;7.65;;;3.10;99.90;;;;;;4990327;28;20038;-61
2023/11/28 09:26:53;;;;;;;16.02;6.97;;;3.20;99.90;;;;;;4979454;28;20043;-61
2023/11/28 09:29:22;;;;;;;16.80;7.35;;;3.20;99.90;;;;;;4991582;28;20040;-61
2023/11/28 09:31:48;;;;;;;16.27;6.63;;;3.20;99.90;;;;;;4985347;28;20035;-61
2023/11/28 09:34:15;;;;;;;16.92;6.97;;;3.20;99.90;;;;;;4992486;28;20065;-61
2023/11/28 09:36:41;;;;;;;15.50;7.93;;;3.20;99.90;;;;;;4980257;28;20026;-61
2023/11/28 09:39:09;;;;;;;14.63;7.65;;;3.20;99.90;;;;;;4991533;28;20031;-61
2023/11/28 09:41:38;;;;;;;15.73;7.80;;;3.20;99.90;;;;;;4981270;28;20114;-61
2023/11/28 09:44:05;;;;;;;16.63;8.35;;;3.30;99.90;;;;;;4991037;28;20045;-62
2023/11/28 09:46:35;;;;;;;15.43;7.60;;;3.20;99.90;;;;;;4980656;28;20065;-60
2023/11/28 09:49:03;;;;;;;16.55;7.15;;;3.20;99.90;;;;;;4989748;28;20406;-60
2023/11/28 09:51:31;;;;;;;14.40;6.72;;;3.20;99.90;;;;;;4986406;28;20038;-60
2023/11/28 09:53:58;;;;;;;13.52;7.28;;;3.30;99.90;;;;;;4989264;28;20030;-60
2023/11/28 09:56:25;;;;;;;15.25;6.75;;;3.20;99.90;;;;;;4983971;28;20030;-60
2023/11/28 09:58:58;;;;;;;13.90;6.70;;;3.20;99.80;;;;;;4981213;28;20572;-60
2023/11/28 10:01:29;;;;;;;16.83;6.45;;;3.20;99.90;;;;;;4984515;28;20046;-60
2023/11/28 10:03:55;;;;;;;15.95;7.15;;;3.20;99.90;;;;;;4982178;28;20092;-60
2023/11/28 10:06:21;;;;;;;15.38;6.95;;;3.30;99.90;;;;;;4985333;28;20022;-60
2023/11/28 10:08:49;;;;;;;17.80;7.72;;;3.20;99.70;;;;;;4981170;28;20889;-60
2023/11/28 10:11:16;;;;;;;13.23;6.38;;;3.20;99.90;;;;;;4983440;28;20030;-60
2023/11/28 10:13:45;;;;;;;13.20;6.20;;;3.20;99.90;;;;;;4981643;28;21005;-60
2023/11/28 10:16:12;;;;;;;12.55;6.57;;;3.20;99.90;;;;;;4985561;28;20489;-60
2023/11/28 10:18:37;;;;;;;14.05;6.60;;;3.30;99.90;;;;;;4990551;28;20521;-60
2023/11/28 10:21:04;;;;;;;14.55;7.53;;;3.30;99.90;;;;;;4984689;28;20043;-59
2023/11/28 10:23:29;;;;;;;12.75;6.03;;;3.30;99.90;;;;;;4981962;28;20049;-60
2023/11/28 10:25:56;;;;;;;12.60;6.53;;;3.40;99.90;;;;;;4984852;28;20043;-60
2023/11/28 10:28:21;;;;;;;16.90;7.28;;;3.40;99.90;;;;;;4982403;28;20783;-61
2023/11/28 10:30:50;;;;;;;17.05;8.13;;;3.40;99.90;;;;;;4966333;28;20057;-60
2023/11/28 10:33:17;;;;;;;17.92;8.20;;;3.50;99.90;;;;;;4976815;28;20096;-60
2023/11/28 10:35:44;;;;;;;19.30;9.55;;;3.50;99.90;;;;;;4985254;28;20034;-60
2023/11/28 10:38:14;;;;;;;13.60;6.78;;;3.60;99.90;;;;;;4982534;28;20069;-61
2023/11/28 10:40:47;;;;;;;15.05;8.25;;;3.60;99.90;;;;;;4983131;28;20032;-61
2023/11/28 10:43:13;;;;;;;16.60;7.82;;;3.60;99.90;;;;;;4982878;28;20053;-61
2023/11/28 10:45:42;;;;;;;14.15;8.13;;;3.70;99.80;;;;;;4986066;28;20026;-61
2023/11/28 10:48:07;;;;;;;20.55;9.52;;;3.70;99.70;;;;;;4981504;28;20027;-61
2023/11/28 10:50:33;;;;;;;17.58;8.40;;;3.70;99.60;;;;;;4988190;28;20537;-63
2023/11/28 10:53:04;;;;;;;15.35;7.10;;;3.70;99.80;;;;;;4979442;28;20042;-62
2023/11/28 10:55:37;;;;;;;14.30;6.53;;;3.70;99.80;;;;;;4987794;28;20498;-60
2023/11/28 10:58:11;;;;;;;15.50;7.13;;;3.70;99.80;;;;;;4980866;28;20043;-62
2023/11/28 11:00:39;;;;;;;13.60;6.72;;;3.70;99.80;;;;;;4987103;28;20046;-61
2023/11/28 11:03:05;;;;;;;14.23;6.40;;;3.60;99.70;;;;;;4980403;28;20035;-60
2023/11/28 11:05:31;;;;;;;14.82;7.20;;;3.60;99.30;;;;;;4989350;28;20398;-60
2023/11/28 11:07:58;;;;;;;12.93;5.80;;;3.60;99.50;;;;;;4979127;28;20058;-60
2023/11/28 11:10:25;;;;;;;15.57;7.28;;;3.50;99.60;;;;;;4989330;28;20104;-60
2023/11/28 11:13:01;;;;;;;17.05;7.45;;;3.50;99.90;;;;;;4977885;28;20117;-61
2023/11/28 11:15:57;;;;;;;15.52;7.88;;;3.50;99.90;;;;;;4990151;28;20045;-61
2023/11/28 11:18:34;;;;;;;15.70;7.30;;;3.50;99.90;;;;;;4962490;28;20073;-61
2023/11/28 11:21:18;;;;;;;16.65;7.13;;;3.40;99.90;;;;;;4987110;28;20030;-60
2023/11/28 11:23:47;;;;;;;14.50;6.93;;;3.50;99.90;;;;;;4982088;28;20597;-61
2023/11/28 11:26:13;;;;;;;14.07;6.85;;;3.40;99.90;;;;;;4987708;28;20041;-60
2023/11/28 11:28:40;;;;;;;14.23;6.72;;;3.50;99.80;;;;;;4976639;28;20043;-60
2023/11/28 11:31:15;;;;;;;14.32;6.53;;;3.50;99.40;;;;;;4988028;28;20031;-61
2023/11/28 11:33:41;;;;;;;11.32;6.65;;;3.50;99.50;;;;;;4976233;28;20039;-60
2023/11/28 11:36:10;;;;;;;14.68;6.78;;;3.50;99.60;;;;;;4988430;28;20542;-61
2023/11/28 11:38:36;;;;;;;11.88;5.80;;;3.50;99.80;;;;;;4977635;28;20490;-61
2023/11/28 11:41:08;;;;;;;11.82;6.07;;;3.50;99.70;;;;;;4987860;28;20062;-61
2023/11/28 11:43:40;;;;;;;10.18;5.40;;;3.50;99.90;;;;;;4977729;28;20612;-61
2023/11/28 11:46:19;;;;;;;10.13;5.57;;;3.50;99.70;;;;;;4988179;28;20045;-61
2023/11/28 11:48:45;;;;;;;11.68;5.43;;;3.50;99.80;;;;;;4977054;28;20046;-61
2023/11/28 11:51:11;;;;;;;10.15;5.70;;;3.50;99.30;;;;;;4989202;28;20076;-62
2023/11/28 11:53:41;;;;;;;11.32;5.47;;;3.50;99.10;;;;;;4977131;28;20096;-61
2023/11/28 11:56:08;;;;;;;11.57;5.65;;;3.50;99.20;;;;;;4988615;28;20101;-62
2023/11/28 11:58:34;;;;;;;9.00;4.95;;;3.40;99.10;;;;;;4981658;28;20042;-61
2023/11/28 12:01:01;;;;;;;10.13;5.10;;;3.30;98.70;;;;;;4988482;28;20514;-61
2023/11/28 12:03:31;;;;;;;11.30;5.30;;;3.30;99.00;;;;;;4978844;28;20030;-61
2023/11/28 12:05:58;;;;;;;10.02;5.07;;;3.20;99.10;;;;;;4986344;28;20146;-61
2023/11/28 12:08:25;;;;;;;10.07;5.05;;;3.20;99.20;;;;;;4983865;28;20088;-61
2023/11/28 12:11:08;;;;;;;9.70;4.28;;;3.20;99.40;;;;;;4985222;28;21092;-65
2023/11/28 12:13:35;;;;;;;10.75;5.53;;;3.20;99.60;;;;;;4981624;28;20027;-66
2023/11/28 12:16:03;;;;;;;9.23;5.47;;;3.20;99.50;;;;;;4991792;28;20046;-66
2023/11/28 12:18:29;;;;;;;12.18;6.28;;;3.20;99.50;;;;;;4983727;28;20498;-66
2023/11/28 12:20:55;;;;;;;9.90;4.82;;;3.30;99.50;;;;;;4990342;28;20517;-66
2023/11/28 12:23:22;;;;;;;9.48;6.00;;;3.40;99.50;;;;;;4985239;28;20065;-65
2023/11/28 12:25:48;;;;;;;7.75;4.55;;;3.40;99.60;;;;;;4989180;28;20049;-65
2023/11/28 12:28:14;;;;;;;12.02;5.30;;;3.40;99.60;;;;;;4987291;28;20033;-66
2023/11/28 12:30:40;;;;;;;7.50;4.18;;;3.40;99.50;;;;;;4989602;28;20495;-66
2023/11/28 12:33:06;;;;;;;7.40;4.90;;;3.40;99.30;;;;;;4985749;28;20038;-65
2023/11/28 12:35:32;;;;;;;14.02;6.15;;;3.40;99.50;;;;;;4983987;28;20035;-66
2023/11/28 12:37:58;;;;;;;6.20;4.07;;;3.40;99.30;;;;;;4986781;28;20037;-65
2023/11/28 12:40:24;;;;;;;10.70;4.55;;;3.40;99.30;;;;;;4999624;28;20084;-65
2023/11/28 12:42:50;;;;;;;8.07;4.18;;;3.40;99.50;;;;;;4990482;28;20035;-65
2023/11/28 12:45:26;;;;;;;11.60;4.88;;;3.40;99.60;;;;;;4985276;28;20034;-65
2023/11/28 12:47:53;;;;;;;;;;;3.50;99.60;;;;;;4986069;28;20045;-65